Elizabethton, TN

04:33 EDT le 31 août 2014 (GMT -0400)
Boone | Change Station
CLOSE
Current Station
Aéroport
Location: Boone,
Altitude: 3146 ft
Stations météo à proximité

Alt. 3146 ft 36.20 °N, 81.65 °W | Updated 18 minutes ago

Overcast
Couvert
70 ° F
Paraît 70 ° F
N
0
Vent Variable Vent de Nord

Aujourd'hui
Haut(e) -- | Bas -- ° F
--% Risque de précip.
Hier
Haut(e) -- | Bas -- ° F
Precip. -- pouce
6:59 AM 7:58 PM
Lune montante, 29% visible
Pression 30.27 pouce
Visibilité 10.0 Miles terrestres
Nuages Couvert 1400 ft
Point de rosée 63 ° F
Humidité 77%
Précipitations 0.00 pouce
Profondeur de la couche neigeuse Non disponible.
UV 0 sur 12
Pollen 9.30 sur 12
Qualité de l'air Non disponible.
Flu Activity Non disponible.
METAR KTNB 310815Z AUTO 00000KT 10SM OVC014 21/17 A3027 RMK AO2 T02120170

More Conditions Fewer Conditions

Pression 30.27 pouce
Visibilité 10.0 Miles terrestres
Nuages Couvert 1400 ft
Point de rosée 63 ° F
Humidité 77%
Précipitations 0.00 pouce
Profondeur de la couche neigeuse Non disponible.
UV 0 sur 12
Pollen 9.30 sur 12
Qualité de l'air Non disponible.
Flu Activity Non disponible.
METAR KTNB 310815Z AUTO 00000KT 10SM OVC014 21/17 A3027 RMK AO2 T02120170

More Conditions Fewer Conditions

10-Day Weather Forecast

Almanac

Astronomie

Aug. 31, 2014 Lever Coucher
Temps réel 06:59 EDT 19:58 EDT
Crépuscule civil 06:33 EDT 20:24 EDT
Crépuscule nautique 06:01 EDT 20:55 EDT
Crépuscule astronomique 05:29 EDT 21:27 EDT
Lune 12:34 EDT 23:23 EDT
Durée de lumière visible 13h 51m
Longueur du jour
12h 58m
Tomorrow will be 2m 13s shorter.
Lune montante, 29% of the Moon is Illuminated
Aujourd'hui
Lune montante
Sep 2
Premier quartier
Sep 8
Pleine lune
Sep 15
Dernier quartier
Sep 24
Nouveau

Extrêmes aujourd'hui

State Highs State Lows

Community

WunderPhotos

Upload Photos

1,748,826 Photos téléchargées !

Nearby

Épaisseur de neige

Station Depth Altitude
Pas de nouvelles chutes de neige

Activité sismique

Ville Distance Mag. Time & Date
No recent earthquake activity has been reported nearby.
Minimum magnitude displayed is 2.5.

Températures des eaux côtières

Lieu Température
Aucun rapport de station

Stations météo à proximité